createdAt,value
2022-10-20T08:05:10.524Z,30.35
2022-10-20T08:07:41.239Z,30.32
2022-10-20T08:10:11.445Z,30.31
2022-10-20T08:12:49.506Z,30.39
2022-10-20T08:15:25.740Z,30.33
2022-10-20T08:18:02.307Z,30.33
2022-10-20T08:20:39.596Z,30.20
2022-10-20T08:23:10.981Z,30.14
2022-10-20T08:25:42.478Z,30.07
2022-10-20T08:28:15.514Z,30.15
2022-10-20T08:30:47.531Z,30.00
2022-10-20T08:33:31.540Z,30.05
2022-10-20T08:36:14.579Z,30.12
2022-10-20T08:38:47.189Z,30.10
2022-10-20T08:41:43.434Z,30.12
2022-10-20T08:44:31.545Z,30.11
2022-10-20T08:47:20.958Z,30.11
2022-10-20T08:49:55.360Z,29.92
2022-10-20T08:52:32.956Z,29.50
2022-10-20T08:55:07.270Z,29.49
2022-10-20T08:57:39.663Z,29.51
2022-10-20T09:00:21.388Z,29.65
2022-10-20T09:02:56.628Z,29.67
2022-10-20T09:05:33.422Z,29.64
2022-10-20T09:08:03.710Z,29.62
2022-10-20T09:11:02.783Z,29.43
2022-10-20T09:13:38.454Z,29.44
2022-10-20T09:16:22.033Z,29.53
2022-10-20T09:19:07.062Z,29.49
2022-10-20T09:21:52.428Z,29.98
2022-10-20T09:24:32.178Z,30.04
2022-10-20T09:27:23.467Z,29.89
2022-10-20T09:30:04.045Z,29.88
2022-10-20T09:32:46.844Z,29.90
2022-10-20T09:35:46.251Z,29.82
2022-10-20T09:38:37.396Z,30.08
2022-10-20T09:41:15.632Z,30.15
2022-10-20T09:44:07.220Z,29.96
2022-10-20T09:46:54.474Z,29.72
2022-10-20T09:49:40.963Z,29.64
2022-10-20T11:58:14.818Z,29.22
2022-10-20T12:01:57.160Z,28.92
2022-10-20T12:05:03.865Z,29.35
2022-10-20T12:41:25.918Z,34.85
2022-10-20T12:44:47.652Z,35.41
2022-10-20T12:47:23.641Z,35.55
2022-10-20T12:50:07.456Z,35.93
2022-10-20T12:52:41.550Z,36.28
2022-10-20T12:59:37.937Z,36.52
2022-10-20T13:10:04.472Z,37.91
2022-10-20T13:12:51.431Z,37.80
2022-10-20T13:15:51.071Z,38.33
2022-10-20T13:18:29.369Z,38.86
2022-10-20T13:21:24.652Z,39.00
2022-10-20T13:24:44.122Z,39.21
2022-10-20T13:27:18.545Z,39.17
2022-10-20T13:30:00.942Z,39.23
2022-10-20T13:33:01.694Z,39.28
2022-10-20T13:36:00.031Z,39.33
2022-10-20T13:38:52.538Z,39.07
2022-10-20T13:41:43.411Z,38.76
2022-10-20T13:44:34.842Z,38.96
2022-10-20T13:47:14.174Z,38.79
2022-10-20T13:49:54.028Z,38.46
2022-10-20T13:52:23.368Z,39.12
2022-10-20T13:55:02.545Z,38.98
2022-10-20T13:57:35.384Z,38.91
2022-10-20T14:00:20.089Z,37.96
2022-10-20T14:02:54.673Z,37.45
2022-10-20T14:05:30.666Z,37.41
2022-10-20T14:08:06.239Z,37.27
2022-10-20T14:10:54.940Z,37.30
2022-10-20T14:13:28.296Z,37.44
2022-10-20T14:16:01.953Z,37.52
2022-10-20T14:18:37.239Z,37.65
2022-10-20T14:21:15.486Z,37.75
2022-10-20T14:23:46.551Z,37.84
2022-10-20T14:26:22.312Z,38.14
2022-10-20T14:29:18.476Z,38.23
2022-10-20T14:31:50.899Z,38.35
2022-10-20T14:34:22.423Z,38.42
2022-10-20T14:36:53.071Z,38.54
2022-10-20T14:39:38.947Z,38.56
2022-10-20T14:42:23.508Z,38.60
2022-10-20T14:44:59.845Z,38.69
2022-10-20T14:47:36.951Z,38.77
2022-10-20T14:50:07.206Z,38.96
2022-10-20T14:52:39.053Z,39.04
2022-10-20T14:55:33.450Z,39.68
2022-10-20T14:58:02.861Z,39.17
2022-10-20T15:00:33.085Z,39.16
2022-10-20T15:03:07.919Z,39.21
2022-10-20T15:05:41.832Z,39.27
2022-10-20T15:08:19.675Z,40.24
2022-10-20T15:10:49.759Z,40.61
2022-10-20T15:13:32.107Z,42.17
2022-10-20T15:16:03.837Z,43.19
2022-10-20T15:18:37.868Z,43.43
2022-10-20T15:21:13.103Z,42.99
2022-10-20T15:23:42.250Z,43.08
2022-10-20T15:26:16.463Z,42.51
2022-10-20T15:28:50.905Z,42.15
2022-10-20T15:31:23.165Z,41.90
2022-10-20T15:33:54.447Z,41.60
2022-10-20T15:36:42.501Z,41.29
2022-10-20T15:39:13.267Z,41.11
2022-10-20T15:41:43.355Z,41.02
2022-10-20T15:58:30.443Z,40.74
2022-10-20T16:01:46.211Z,40.62
2022-10-20T16:04:54.723Z,40.51
2022-10-20T16:07:38.545Z,40.58
2022-10-20T16:10:53.895Z,40.51
2022-10-20T16:13:26.277Z,40.54
2022-10-20T16:16:02.868Z,40.45
2022-10-20T16:18:37.889Z,40.35
2022-10-20T16:21:09.187Z,40.27
2022-10-20T16:23:49.665Z,40.33
2022-10-20T16:26:23.349Z,40.51
2022-10-20T16:29:02.466Z,40.68
2022-10-20T16:31:39.527Z,40.74
2022-10-20T16:35:38.478Z,40.82
2022-10-20T16:38:50.552Z,40.84
2022-10-20T16:42:32.006Z,40.89
2022-10-20T16:45:09.860Z,40.85
2022-10-20T16:48:30.269Z,40.75
2022-10-20T16:51:42.662Z,40.91
2022-10-20T16:54:55.689Z,40.83
2022-10-20T17:00:39.881Z,41.00
2022-10-20T17:03:53.676Z,41.07
2022-10-20T17:14:40.428Z,41.12
2022-10-20T17:17:34.651Z,41.05
2022-10-20T17:20:17.827Z,41.08
2022-10-20T17:23:01.428Z,41.31
2022-10-20T17:26:11.750Z,41.21
2022-10-20T17:29:23.747Z,41.21
2022-10-20T17:32:23.228Z,41.22
2022-10-20T17:35:07.671Z,41.23
2022-10-20T17:38:02.265Z,41.29
2022-10-20T17:40:49.198Z,41.29
2022-10-20T17:43:20.934Z,41.34
2022-10-20T17:46:29.264Z,41.36
2022-10-20T17:53:13.667Z,41.38
2022-10-20T17:55:54.985Z,41.30
2022-10-20T18:04:10.545Z,41.44
2022-10-20T18:07:13.704Z,41.52
2022-10-20T18:09:51.249Z,41.55
2022-10-20T18:12:40.906Z,41.67
2022-10-20T18:16:04.795Z,41.72
2022-10-20T18:20:28.728Z,41.78
2022-10-20T18:31:22.293Z,41.83
2022-10-20T18:34:05.759Z,41.81
2022-10-20T18:36:39.210Z,41.72
2022-10-20T18:39:12.653Z,41.79
2022-10-20T18:41:44.832Z,41.81
2022-10-20T18:44:25.595Z,41.81
2022-10-20T18:47:05.225Z,41.85
2022-10-20T18:49:39.214Z,41.84
2022-10-20T18:52:18.993Z,41.82
2022-10-20T18:54:51.236Z,41.81
2022-10-20T18:57:28.137Z,41.77
2022-10-20T18:59:58.667Z,41.79
2022-10-20T19:02:31.751Z,41.77
2022-10-20T19:05:09.230Z,41.75
2022-10-20T19:07:39.533Z,41.76
2022-10-20T19:10:11.521Z,41.82
2022-10-20T19:12:43.424Z,41.88
2022-10-20T19:15:23.478Z,41.96
2022-10-20T19:18:03.104Z,42.05
2022-10-20T19:20:35.278Z,42.01
2022-10-20T19:23:06.398Z,42.00
2022-10-20T19:25:43.423Z,42.01
2022-10-20T19:28:15.860Z,42.05
2022-10-20T19:30:49.883Z,42.05
2022-10-20T19:33:18.709Z,42.21
2022-10-20T19:35:51.319Z,42.16
2022-10-20T19:38:30.477Z,42.18
2022-10-20T19:41:01.331Z,42.25
2022-10-20T19:43:39.929Z,42.21
2022-10-20T19:46:15.149Z,42.19
2022-10-20T19:48:48.866Z,42.18
2022-10-20T19:51:23.272Z,42.20
2022-10-20T19:53:56.139Z,42.36
2022-10-20T19:56:29.194Z,42.36
2022-10-20T19:59:02.386Z,42.37
2022-10-20T20:01:34.891Z,42.40
2022-10-20T20:04:11.055Z,42.54
2022-10-20T20:06:42.224Z,42.39
2022-10-20T20:09:13.800Z,43.08
2022-10-20T20:11:44.424Z,43.49
2022-10-20T20:14:19.200Z,43.52
2022-10-20T20:16:51.809Z,43.37
2022-10-20T20:19:26.142Z,42.79
2022-10-20T20:21:59.406Z,42.34
2022-10-20T20:24:46.263Z,42.12
2022-10-20T20:33:39.575Z,42.21
2022-10-20T20:36:14.504Z,42.16
2022-10-20T20:38:47.936Z,42.04
2022-10-20T20:41:26.873Z,42.07
2022-10-20T20:44:19.941Z,42.10
2022-10-20T20:47:10.606Z,42.09
2022-10-20T20:49:41.272Z,42.04
2022-10-20T20:52:11.059Z,42.03
2022-10-20T20:54:42.699Z,42.04
2022-10-20T20:57:13.838Z,42.08
2022-10-20T20:59:42.834Z,42.19
2022-10-20T21:02:24.114Z,42.23
2022-10-20T21:05:06.868Z,42.09
2022-10-20T21:07:39.399Z,42.10
2022-10-20T21:10:15.729Z,42.12
2022-10-20T21:12:49.427Z,42.05
2022-10-20T21:15:29.022Z,42.01
2022-10-20T21:25:21.612Z,41.88
2022-10-20T21:28:23.519Z,41.73
2022-10-20T21:32:20.009Z,41.60
2022-10-20T21:40:51.912Z,41.63
2022-10-20T21:48:48.279Z,41.43
2022-10-20T21:52:14.201Z,41.37
2022-10-20T21:55:18.001Z,41.28
2022-10-20T22:05:46.860Z,41.18
2022-10-20T22:20:56.193Z,40.92
2022-10-20T22:24:11.708Z,40.88
2022-10-20T22:26:52.027Z,40.83
2022-10-20T22:31:31.153Z,40.70
2022-10-20T22:34:47.515Z,40.66
2022-10-20T22:38:19.563Z,40.49
2022-10-20T23:23:15.219Z,38.61
